Time;durP1;ratioP1;P1;durP2;ratioP2;P2;SDS_P1;SDS_P2;PMS_P1;PMS_P2;Temp;Humidity;BMP_temperature;BMP_pressure;BME280_temperature;BME280_humidity;BME280_pressure;Samples;Min_cycle;Max_cycle;Signal;HPM_P1;HPM_P2
2021/01/20 00:02:23;;;;;;;4.00;3.15;;;;;;;3.47;56.22;98287.44;5097181;28;20473;-68
2021/01/20 00:04:50;;;;;;;4.20;2.97;;;;;;;3.47;55.58;98287.44;5097183;28;20512;-69
2021/01/20 00:07:18;;;;;;;4.28;2.60;;;;;;;3.53;55.83;98280.72;5094879;28;20052;-68
2021/01/20 00:09:45;;;;;;;4.53;2.80;;;;;;;3.52;55.50;98277.31;5094989;28;20115;-68
2021/01/20 00:12:12;;;;;;;3.80;2.78;;;;;;;3.53;55.45;98285.97;5094992;28;20052;-68
2021/01/20 00:14:38;;;;;;;3.22;2.40;;;;;;;3.57;55.74;98275.03;5094773;28;20448;-68
2021/01/20 00:17:07;;;;;;;4.22;2.75;;;;;;;3.57;54.93;98276.81;5094930;28;20044;-68
2021/01/20 00:19:34;;;;;;;2.60;2.00;;;;;;;3.58;54.85;98268.00;5094914;28;20044;-68
2021/01/20 00:22:00;;;;;;;2.97;2.10;;;;;;;3.61;54.99;98275.53;5094868;28;20040;-70
2021/01/20 00:24:27;;;;;;;3.00;2.13;;;;;;;3.65;54.60;98258.53;5094610;28;20043;-68
2021/01/20 00:26:54;;;;;;;5.38;2.63;;;;;;;3.69;54.56;98263.28;5094722;28;20044;-68
2021/01/20 00:29:20;;;;;;;3.75;2.78;;;;;;;3.70;53.90;98254.44;5094690;28;20047;-68
2021/01/20 00:31:47;;;;;;;3.45;2.47;;;;;;;3.75;54.06;98253.13;5094599;28;20493;-69
2021/01/20 00:34:15;;;;;;;4.60;2.60;;;;;;;3.77;53.86;98249.41;5094307;28;20044;-68
2021/01/20 00:36:41;;;;;;;3.35;2.13;;;;;;;3.84;53.70;98242.53;5094528;28;20044;-71
2021/01/20 00:39:08;;;;;;;3.83;2.28;;;;;;;3.87;53.38;98239.56;5094272;28;20040;-68
2021/01/20 00:41:35;;;;;;;3.17;2.50;;;;;;;3.88;53.17;98243.03;5094022;28;20043;-68
2021/01/20 00:44:02;;;;;;;3.45;2.30;;;;;;;3.92;53.34;98239.94;5094278;28;20040;-68
2021/01/20 00:46:30;;;;;;;2.70;1.90;;;;;;;3.95;53.20;98238.75;5093921;28;20044;-68
2021/01/20 00:48:57;;;;;;;2.92;2.25;;;;;;;3.97;53.05;98240.25;5094562;28;20036;-68
2021/01/20 00:51:25;;;;;;;3.10;2.10;;;;;;;4.02;53.06;98231.91;5092794;28;20048;-68
2021/01/20 00:53:52;;;;;;;3.95;2.50;;;;;;;4.06;53.14;98219.31;5093076;28;20492;-68
2021/01/20 00:56:19;;;;;;;4.30;2.72;;;;;;;4.06;53.21;98220.13;5092442;28;20050;-68
2021/01/20 00:58:45;;;;;;;4.35;2.63;;;;;;;4.09;53.19;98226.84;5092928;28;20097;-68
2021/01/20 01:01:12;;;;;;;3.65;2.13;;;;;;;4.08;52.84;98231.25;5094091;28;20153;-68
2021/01/20 01:03:39;;;;;;;5.32;2.13;;;;;;;4.07;52.70;98220.94;5094215;28;20040;-68
2021/01/20 01:06:06;;;;;;;2.40;2.17;;;;;;;4.08;52.66;98225.19;5093543;28;20086;-68
2021/01/20 01:08:34;;;;;;;3.00;2.35;;;;;;;4.05;52.43;98217.69;5093895;28;20514;-68
2021/01/20 01:11:02;;;;;;;3.35;2.30;;;;;;;4.07;52.61;98218.31;5092406;28;20059;-68
2021/01/20 01:13:36;;;;;;;3.65;2.15;;;;;;;4.06;52.43;98224.53;5092305;28;20044;-68
2021/01/20 01:16:26;;;;;;;3.97;2.33;;;;;;;4.06;52.36;98220.13;5082895;28;20528;-68
2021/01/20 01:18:53;;;;;;;5.82;2.42;;;;;;;4.08;52.54;98217.34;5093425;28;20413;-68
2021/01/20 01:21:19;;;;;;;2.90;1.95;;;;;;;4.07;52.50;98219.13;5092182;28;20101;-68
2021/01/20 01:23:47;;;;;;;4.38;2.50;;;;;;;4.07;52.17;98226.97;5093514;28;20118;-68
2021/01/20 01:26:14;;;;;;;3.17;2.00;;;;;;;4.08;52.35;98227.78;5091985;28;20044;-68
2021/01/20 01:28:42;;;;;;;3.78;2.20;;;;;;;4.12;52.45;98224.72;5092303;28;20097;-68
2021/01/20 01:31:32;;;;;;;3.88;2.30;;;;;;;4.12;52.35;98236.94;5090095;28;20121;-68
2021/01/20 01:33:59;;;;;;;4.85;2.60;;;;;;;4.10;52.10;98223.22;5091985;28;20139;-68
2021/01/20 01:36:28;;;;;;;3.95;2.20;;;;;;;4.10;52.12;98218.81;5091691;28;20131;-68
2021/01/20 01:38:58;;;;;;;5.15;2.42;;;;;;;4.11;52.26;98224.84;5091893;28;20070;-68
2021/01/20 01:41:35;;;;;;;4.00;2.10;;;;;;;4.09;52.19;98224.22;5093174;28;20042;-68
2021/01/20 01:44:04;;;;;;;3.42;2.40;;;;;;;4.11;52.37;98217.81;5093100;28;20040;-69
2021/01/20 01:46:42;;;;;;;3.35;2.28;;;;;;;4.12;52.35;98216.03;5091893;28;20410;-68
2021/01/20 01:49:23;;;;;;;6.30;2.50;;;;;;;4.12;52.17;98214.25;5091792;28;20044;-68
2021/01/20 01:51:53;;;;;;;5.50;2.30;;;;;;;4.12;52.38;98216.03;5091704;28;20044;-68
2021/01/20 01:54:40;;;;;;;3.85;2.03;;;;;;;4.11;52.32;98217.00;5092461;28;20054;-68
2021/01/20 01:57:23;;;;;;;4.32;2.30;;;;;;;4.13;52.45;98209.84;5091788;28;20048;-68
2021/01/20 01:59:52;;;;;;;2.80;2.22;;;;;;;4.16;52.52;98206.84;5091532;28;20040;-68
2021/01/20 02:02:39;;;;;;;3.03;2.35;;;;;;;4.14;52.16;98201.00;5092865;28;20075;-68
2021/01/20 02:05:08;;;;;;;4.10;2.50;;;;;;;4.16;52.48;98201.63;5091287;28;20070;-68
2021/01/20 02:07:40;;;;;;;2.53;2.17;;;;;;;4.16;52.62;98199.84;5092705;28;20493;-68
2021/01/20 02:10:08;;;;;;;3.05;2.20;;;;;;;4.15;52.52;98200.00;5091387;28;20086;-68
2021/01/20 02:13:27;;;;;;;2.63;2.20;;;;;;;4.18;52.31;98190.03;5091448;28;20078;-68
2021/01/20 02:16:19;;;;;;;4.15;2.33;;;;;;;4.20;52.32;98189.84;5092182;28;20040;-68
2021/01/20 02:18:51;;;;;;;4.22;2.53;;;;;;;4.21;52.45;98191.50;5091259;28;20044;-68
2021/01/20 02:21:54;;;;;;;3.33;2.15;;;;;;;4.23;51.93;98189.53;5091105;28;20048;-68
2021/01/20 02:25:11;;;;;;;4.82;2.58;;;;;;;4.21;52.49;98179.22;5110031;28;20188;-68
2021/01/20 02:28:13;;;;;;;3.47;2.13;;;;;;;4.26;52.57;98180.53;5090973;28;20501;-68
2021/01/20 02:31:02;;;;;;;3.70;2.30;;;;;;;4.24;52.55;98178.06;5092224;28;20048;-68
2021/01/20 02:33:36;;;;;;;3.87;2.27;;;;;;;4.23;52.38;98181.66;5091121;28;20463;-68
2021/01/20 02:36:21;;;;;;;3.38;2.17;;;;;;;4.26;52.51;98175.31;5090703;28;20292;-68
2021/01/20 02:39:04;;;;;;;3.30;2.10;;;;;;;4.27;52.52;98163.84;5090839;28;20517;-68
2021/01/20 02:41:33;;;;;;;3.00;2.53;;;;;;;4.32;52.79;98172.00;5090874;28;20044;-68
2021/01/20 02:44:22;;;;;;;4.00;1.83;;;;;;;4.31;52.51;98171.19;5090457;28;20082;-68
2021/01/20 02:46:50;;;;;;;3.78;2.58;;;;;;;4.33;52.54;98160.56;5092429;28;20078;-68
2021/01/20 02:49:29;;;;;;;2.63;2.13;;;;;;;4.32;52.59;98166.75;5091218;28;20044;-67
2021/01/20 02:52:03;;;;;;;6.13;2.40;;;;;;;4.32;52.43;98156.28;5092630;28;20040;-67
2021/01/20 02:54:53;;;;;;;4.45;2.55;;;;;;;4.36;52.39;98157.59;5093052;28;20051;-67
2021/01/20 02:57:39;;;;;;;3.58;2.20;;;;;;;4.35;52.50;98159.41;5092651;28;20051;-67
2021/01/20 03:00:13;;;;;;;3.10;2.10;;;;;;;4.36;52.45;98158.41;5090973;28;20041;-67
2021/01/20 03:02:49;;;;;;;4.28;2.38;;;;;;;4.37;52.39;98161.88;5092419;28;20054;-67
2021/01/20 03:05:18;;;;;;;5.43;3.00;;;;;;;4.34;52.11;98159.56;5093481;28;20056;-67
2021/01/20 03:07:45;;;;;;;4.15;2.40;;;;;;;4.35;52.16;98156.78;5097314;28;20447;-67
2021/01/20 03:10:13;;;;;;;2.92;2.15;;;;;;;4.35;52.16;98148.13;5096923;28;20416;-67
2021/01/20 03:12:41;;;;;;;3.95;2.30;;;;;;;4.36;52.06;98149.75;5096473;28;20093;-67
2021/01/20 03:15:13;;;;;;;4.63;2.50;;;;;;;4.36;52.23;98144.50;5095797;28;20071;-67
2021/01/20 03:17:40;;;;;;;3.63;2.58;;;;;;;4.32;52.10;98130.94;5095820;28;20044;-67
2021/01/20 03:20:09;;;;;;;4.55;2.50;;;;;;;4.32;52.36;98137.97;5096076;28;20139;-67
2021/01/20 03:22:36;;;;;;;3.60;2.45;;;;;;;4.35;52.24;98121.94;5096116;28;20044;-67
2021/01/20 03:25:03;;;;;;;3.33;2.50;;;;;;;4.36;52.05;98124.38;5095688;28;20056;-67
2021/01/20 03:27:30;;;;;;;3.40;2.35;;;;;;;4.34;51.94;98126.38;5095856;28;20056;-67
2021/01/20 03:29:56;;;;;;;3.75;2.30;;;;;;;4.35;51.91;98130.59;5096120;28;20044;-67
2021/01/20 03:32:23;;;;;;;3.30;2.58;;;;;;;4.35;52.21;98124.56;5095647;28;20052;-67
2021/01/20 03:34:50;;;;;;;6.68;2.85;;;;;;;4.36;52.31;98123.56;5095548;28;20097;-67
2021/01/20 03:37:18;;;;;;;4.97;2.33;;;;;;;4.41;52.28;98118.66;5096063;28;20383;-67
2021/01/20 03:39:45;;;;;;;4.40;2.50;;;;;;;4.41;52.09;98113.44;5095528;28;20544;-67
2021/01/20 03:42:11;;;;;;;3.83;2.88;;;;;;;4.33;51.88;98111.66;5095510;28;20048;-67
2021/01/20 03:44:38;;;;;;;3.78;2.47;;;;;;;4.34;52.55;98104.63;5095186;28;20055;-67
2021/01/20 03:47:05;;;;;;;3.03;2.53;;;;;;;4.37;52.28;98112.97;5095560;28;20040;-67
2021/01/20 03:49:32;;;;;;;3.08;2.10;;;;;;;4.40;51.99;98101.31;5095580;28;20052;-67
2021/01/20 03:51:59;;;;;;;3.92;2.55;;;;;;;4.41;52.07;98103.78;5095262;28;20051;-67
2021/01/20 03:54:26;;;;;;;3.78;2.47;;;;;;;4.42;52.27;98105.41;5095088;28;20048;-67
2021/01/20 03:56:53;;;;;;;3.58;2.55;;;;;;;4.46;52.14;98109.31;5095646;28;20058;-67
2021/01/20 03:59:19;;;;;;;4.00;2.40;;;;;;;4.48;52.20;98107.31;5095016;28;20097;-67
2021/01/20 04:01:46;;;;;;;3.78;2.28;;;;;;;4.45;52.13;98096.41;5095330;28;20546;-67
2021/01/20 04:04:13;;;;;;;4.00;2.55;;;;;;;4.38;52.04;98095.44;5094830;28;20051;-67
2021/01/20 04:06:39;;;;;;;3.15;2.33;;;;;;;4.41;52.01;98100.34;5095126;28;20048;-67
2021/01/20 04:09:06;;;;;;;3.55;2.70;;;;;;;4.42;51.93;98091.50;5094972;28;20069;-67
2021/01/20 04:11:34;;;;;;;4.50;2.50;;;;;;;4.43;51.97;98095.75;5094883;28;20522;-67
2021/01/20 04:14:00;;;;;;;2.90;2.42;;;;;;;4.43;52.02;98093.13;5094833;28;20051;-67
2021/01/20 04:16:27;;;;;;;3.70;2.58;;;;;;;4.46;52.15;98098.03;5094153;28;20046;-67
2021/01/20 04:18:54;;;;;;;5.28;3.08;;;;;;;4.48;51.99;98082.97;5093366;28;20501;-67
2021/01/20 04:21:21;;;;;;;3.50;2.50;;;;;;;4.51;51.98;98081.81;5094705;28;20040;-67
2021/01/20 04:23:48;;;;;;;5.10;2.47;;;;;;;4.49;51.95;98071.53;5094684;28;20436;-67
2021/01/20 04:26:15;;;;;;;5.35;2.70;;;;;;;4.47;51.68;98078.72;5094273;28;20062;-67
2021/01/20 04:28:42;;;;;;;3.00;2.40;;;;;;;4.50;51.99;98080.19;5094663;28;20463;-67
2021/01/20 04:31:09;;;;;;;3.88;2.55;;;;;;;4.50;51.95;98075.75;5094706;28;20038;-67
2021/01/20 04:33:36;;;;;;;4.43;2.88;;;;;;;4.46;52.04;98072.66;5094501;28;20040;-67
2021/01/20 04:36:03;;;;;;;3.72;2.50;;;;;;;4.51;52.13;98068.72;5094121;28;20510;-67
2021/01/20 04:38:30;;;;;;;4.35;2.50;;;;;;;4.54;51.96;98071.00;5094181;28;20044;-66
2021/01/20 04:40:57;;;;;;;3.92;2.92;;;;;;;4.56;52.08;98069.00;5095527;28;20040;-67
2021/01/20 04:43:24;;;;;;;5.68;2.80;;;;;;;4.52;52.16;98070.34;5095184;28;20040;-67
2021/01/20 04:45:53;;;;;;;3.85;2.67;;;;;;;4.54;52.14;98066.59;5094032;28;20047;-67
2021/01/20 04:48:20;;;;;;;6.65;2.42;;;;;;;4.54;52.18;98073.63;5094374;28;20043;-67
2021/01/20 04:50:48;;;;;;;4.28;2.85;;;;;;;4.60;52.08;98068.50;5094170;28;20069;-67
2021/01/20 04:53:18;;;;;;;4.45;3.13;;;;;;;4.56;52.28;98076.88;5094142;28;20052;-67
2021/01/20 04:55:46;;;;;;;4.95;2.88;;;;;;;4.57;52.15;98076.72;5093764;28;20137;-67
2021/01/20 04:58:13;;;;;;;5.47;2.88;;;;;;;4.61;52.17;98067.53;5093987;28;20498;-67
2021/01/20 05:00:41;;;;;;;5.72;3.13;;;;;;;4.62;52.34;98074.38;5094296;28;20048;-67
2021/01/20 05:03:10;;;;;;;5.43;2.80;;;;;;;4.62;52.22;98070.97;5094372;28;20040;-67
2021/01/20 05:05:37;;;;;;;4.57;2.80;;;;;;;4.64;52.54;98075.00;5093642;28;20444;-67
2021/01/20 05:08:05;;;;;;;6.93;3.28;;;;;;;4.68;52.56;98078.91;5093759;28;20043;-67
2021/01/20 05:10:32;;;;;;;3.75;2.90;;;;;;;4.67;52.52;98068.63;5093734;28;20059;-67
2021/01/20 05:13:00;;;;;;;4.93;3.00;;;;;;;4.64;52.63;98076.81;5093781;28;20047;-67
2021/01/20 05:15:31;;;;;;;3.55;2.83;;;;;;;4.67;52.78;98069.44;5093524;28;20040;-66
2021/01/20 05:17:59;;;;;;;4.97;3.03;;;;;;;4.69;52.90;98074.50;5093601;28;20047;-67
2021/01/20 05:20:28;;;;;;;4.90;3.20;;;;;;;4.69;52.84;98075.34;5093460;28;20050;-67
2021/01/20 05:22:56;;;;;;;4.55;2.92;;;;;;;4.70;52.98;98063.88;5093608;28;20101;-68
2021/01/20 05:25:30;;;;;;;6.07;3.53;;;;;;;4.75;53.15;98068.59;5093296;28;20055;-67
2021/01/20 05:28:15;;;;;;;5.80;3.40;;;;;;;4.75;53.07;98059.91;5093336;28;20048;-68
2021/01/20 05:30:47;;;;;;;4.88;3.00;;;;;;;4.74;53.36;98066.16;5092278;28;20048;-67
2021/01/20 05:33:16;;;;;;;4.65;3.20;;;;;;;4.76;53.45;98072.81;5093326;28;20502;-67
2021/01/20 05:35:45;;;;;;;6.90;3.05;;;;;;;4.80;53.40;98062.81;5093032;28;20127;-67
2021/01/20 05:38:14;;;;;;;6.38;3.38;;;;;;;4.81;53.62;98067.06;5093144;28;20415;-67
2021/01/20 05:40:41;;;;;;;8.00;3.95;;;;;;;4.84;53.54;98064.09;5093077;28;20512;-67
2021/01/20 05:43:08;;;;;;;4.95;3.35;;;;;;;4.84;53.78;98064.91;5093250;28;20043;-67
2021/01/20 05:45:45;;;;;;;6.05;3.45;;;;;;;4.85;53.71;98056.06;5092758;28;20422;-67
2021/01/20 05:48:12;;;;;;;5.82;3.17;;;;;;;4.84;53.86;98058.88;5093031;28;20044;-67
2021/01/20 05:50:57;;;;;;;5.93;3.20;;;;;;;4.87;53.93;98053.28;5092851;28;20489;-67
2021/01/20 05:53:24;;;;;;;4.95;3.50;;;;;;;4.88;53.95;98041.81;5092984;28;20036;-67
2021/01/20 05:56:01;;;;;;;5.15;3.85;;;;;;;4.83;54.20;98041.53;5092523;28;20046;-67
2021/01/20 05:58:38;;;;;;;6.63;3.75;;;;;;;4.82;54.42;98043.34;5092922;28;20040;-67
2021/01/20 06:01:06;;;;;;;6.28;3.70;;;;;;;4.82;54.46;98042.53;5092879;28;20040;-68
2021/01/20 06:03:34;;;;;;;7.13;4.22;;;;;;;4.84;54.63;98040.53;5092869;28;20489;-67
2021/01/20 06:06:04;;;;;;;6.07;3.65;;;;;;;4.86;54.86;98042.00;5092436;28;20075;-67
2021/01/20 06:08:32;;;;;;;6.07;4.05;;;;;;;4.91;55.00;98031.00;5092708;28;20413;-67
2021/01/20 06:10:59;;;;;;;7.97;4.43;;;;;;;4.92;54.94;98037.84;5092661;28;20055;-67
2021/01/20 06:13:27;;;;;;;6.25;3.90;;;;;;;4.94;55.23;98026.22;5092629;28;20055;-67
2021/01/20 06:15:57;;;;;;;4.25;3.17;;;;;;;4.99;55.23;98020.47;5092333;28;20044;-67
2021/01/20 06:18:25;;;;;;;5.30;3.28;;;;;;;4.93;55.36;98018.53;5092598;28;20056;-68
2021/01/20 06:20:53;;;;;;;4.40;3.47;;;;;;;4.95;55.59;98024.41;5092450;28;20036;-67
2021/01/20 06:23:25;;;;;;;7.03;4.18;;;;;;;4.97;55.74;98022.41;5092521;28;20051;-68
2021/01/20 06:26:00;;;;;;;8.23;4.10;;;;;;;4.94;56.10;98025.41;5092174;28;20040;-67
2021/01/20 06:28:27;;;;;;;6.10;4.07;;;;;;;4.95;56.02;98021.78;5092426;28;20421;-67
2021/01/20 06:30:55;;;;;;;5.95;3.80;;;;;;;4.97;56.13;98015.38;5092431;28;20058;-67
2021/01/20 06:33:26;;;;;;;5.85;3.97;;;;;;;4.95;56.35;98014.75;5092286;28;20036;-67
2021/01/20 06:35:53;;;;;;;7.32;3.55;;;;;;;4.95;56.69;98006.91;5092000;28;20066;-67
2021/01/20 06:38:34;;;;;;;5.35;3.70;;;;;;;4.94;56.91;98020.19;5092370;28;20062;-68
2021/01/20 06:41:02;;;;;;;5.88;4.07;;;;;;;4.97;56.97;98020.63;5091975;28;20040;-67
2021/01/20 06:43:45;;;;;;;4.75;3.65;;;;;;;5.05;57.09;98011.88;5092243;28;20047;-67
2021/01/20 06:46:26;;;;;;;8.18;3.67;;;;;;;5.07;57.30;98011.72;5089979;28;20059;-67
2021/01/20 06:49:07;;;;;;;8.13;4.40;;;;;;;5.13;57.36;98008.38;5092154;28;20040;-67
2021/01/20 06:51:34;;;;;;;6.38;3.55;;;;;;;5.06;57.71;98004.81;5092230;28;20044;-67
2021/01/20 06:54:15;;;;;;;7.57;3.92;;;;;;;5.12;57.66;98001.53;5093032;28;20047;-67
2021/01/20 06:56:49;;;;;;;5.97;3.75;;;;;;;5.17;57.87;98007.84;5092981;28;20044;-67
2021/01/20 06:59:25;;;;;;;;;;;;;;;5.13;58.02;98008.38;5092655;28;20059;-67
2021/01/20 07:02:12;;;;;;;7.22;3.58;;;;;;;5.13;58.39;98009.19;5092010;28;19920;-68
2021/01/20 07:04:55;;;;;;;7.38;3.70;;;;;;;5.12;58.67;98002.31;5091713;28;20050;-67
2021/01/20 07:08:01;;;;;;;5.95;3.45;;;;;;;5.11;58.71;98005.13;5091865;28;20055;-67
2021/01/20 07:10:45;;;;;;;9.43;4.57;;;;;;;5.17;58.70;97999.97;5092085;28;20050;-67
2021/01/20 07:13:16;;;;;;;8.55;3.92;;;;;;;5.15;58.94;97991.50;5075229;28;20064;-67
2021/01/20 07:15:52;;;;;;;8.30;4.18;;;;;;;5.19;59.07;97984.91;5091597;28;20146;-67
2021/01/20 07:18:22;;;;;;;11.80;4.45;;;;;;;5.25;59.21;97988.63;5091918;28;20391;-67
2021/01/20 07:20:49;;;;;;;7.65;3.83;;;;;;;5.24;59.40;97986.19;5090588;28;20048;-67
2021/01/20 07:23:16;;;;;;;6.22;3.95;;;;;;;5.26;59.62;97986.81;5091774;28;20051;-68
2021/01/20 07:25:47;;;;;;;6.72;3.97;;;;;;;5.29;59.75;97989.06;5091510;28;20032;-67
2021/01/20 07:28:13;;;;;;;5.43;4.03;;;;;;;5.30;59.67;97983.66;5091959;28;20093;-67
2021/01/20 07:30:40;;;;;;;6.95;3.50;;;;;;;5.36;59.94;97979.50;5091758;28;20048;-67
2021/01/20 07:33:22;;;;;;;6.30;3.85;;;;;;;5.37;60.06;97976.69;5091682;28;20041;-67
2021/01/20 07:35:50;;;;;;;7.90;3.72;;;;;;;5.39;60.31;97973.91;5091349;28;20044;-67
2021/01/20 07:38:17;;;;;;;7.65;3.30;;;;;;;5.38;60.47;97965.22;5091442;28;20052;-67
2021/01/20 07:40:45;;;;;;;6.20;3.08;;;;;;;5.44;60.37;97968.94;5091399;28;20131;-68
2021/01/20 07:43:23;;;;;;;8.00;4.25;;;;;;;5.51;60.23;97979.50;5091522;28;20036;-67
2021/01/20 07:45:51;;;;;;;10.23;3.80;;;;;;;5.51;60.35;97979.50;5091286;28;20443;-67
2021/01/20 07:48:28;;;;;;;7.32;3.33;;;;;;;5.53;60.92;97973.09;5091414;28;20068;-67
2021/01/20 07:50:55;;;;;;;8.43;3.83;;;;;;;5.53;60.72;97967.84;5090146;28;20048;-67
2021/01/20 07:53:22;;;;;;;6.28;3.53;;;;;;;5.59;60.77;97971.56;5094149;28;20044;-67
2021/01/20 07:55:53;;;;;;;9.38;3.42;;;;;;;5.57;61.08;97977.00;5094983;28;20498;-67
2021/01/20 07:58:26;;;;;;;6.05;3.40;;;;;;;5.64;61.03;97974.47;5095120;28;20036;-67
2021/01/20 08:00:53;;;;;;;10.05;3.17;;;;;;;5.66;61.00;97969.84;5094991;28;20047;-68
2021/01/20 08:03:32;;;;;;;6.55;3.45;;;;;;;5.73;60.88;97965.50;5095219;28;20123;-67
2021/01/20 08:05:59;;;;;;;6.68;3.40;;;;;;;5.77;60.81;97974.63;5094840;28;20054;-67
2021/01/20 08:08:25;;;;;;;5.20;3.25;;;;;;;5.81;60.92;97960.16;5094837;28;20489;-67
2021/01/20 08:10:57;;;;;;;6.63;3.35;;;;;;;5.88;60.96;97965.50;5094947;28;20094;-67
2021/01/20 08:13:27;;;;;;;7.60;2.70;;;;;;;5.90;60.94;97959.06;5094769;28;20068;-67
2021/01/20 08:15:54;;;;;;;6.88;3.58;;;;;;;5.93;60.98;97965.78;5094538;28;20047;-67
2021/01/20 08:18:22;;;;;;;7.45;3.45;;;;;;;5.95;60.89;97969.84;5094933;28;20083;-67
2021/01/20 08:20:50;;;;;;;7.50;4.05;;;;;;;5.99;61.09;97967.66;5094672;28;20040;-67
2021/01/20 08:23:32;;;;;;;7.00;3.58;;;;;;;6.01;61.09;97968.31;5094672;28;20079;-67
2021/01/20 08:26:07;;;;;;;6.65;2.92;;;;;;;6.04;61.16;97954.84;5094156;28;20517;-67
2021/01/20 08:28:34;;;;;;;8.82;4.82;;;;;;;6.09;61.14;97959.53;5094619;28;20051;-67
2021/01/20 08:31:19;;;;;;;24.83;15.77;;;;;;;6.16;61.17;97952.50;5094712;28;20409;-67
2021/01/20 08:33:46;;;;;;;19.17;11.02;;;;;;;6.19;61.03;97962.66;5094718;28;20413;-67
2021/01/20 08:36:22;;;;;;;6.20;4.95;;;;;;;6.26;60.87;97953.03;5094454;28;20048;-67
2021/01/20 08:38:49;;;;;;;9.15;5.40;;;;;;;6.28;60.94;97945.78;5093353;28;20623;-67
2021/01/20 08:41:17;;;;;;;6.63;3.88;;;;;;;6.34;60.81;97958.19;5094253;28;20032;-67
2021/01/20 08:43:45;;;;;;;6.65;3.53;;;;;;;6.39;60.80;97950.56;5094258;28;20040;-67
2021/01/20 08:46:22;;;;;;;5.20;3.50;;;;;;;6.42;60.84;97949.38;5093898;28;20047;-67
2021/01/20 08:48:56;;;;;;;9.02;3.28;;;;;;;6.50;60.66;97951.06;5094071;28;20044;-67
2021/01/20 08:51:23;;;;;;;;;;;;;;;6.53;60.52;97941.00;5094476;28;20482;-67
2021/01/20 08:53:50;;;;;;;4.97;3.00;;;;;;;6.57;60.57;97941.41;5094036;28;19920;-67
2021/01/20 08:56:26;;;;;;;6.60;3.10;;;;;;;6.59;60.55;97936.81;5093680;28;20036;-67
2021/01/20 08:59:09;;;;;;;5.90;3.75;;;;;;;6.64;60.48;97926.53;5093932;28;20047;-67
2021/01/20 09:01:35;;;;;;;4.70;2.80;;;;;;;6.68;60.18;97931.22;5094029;28;20048;-67
2021/01/20 09:04:04;;;;;;;6.90;2.95;;;;;;;6.74;60.25;97936.75;5093722;28;20040;-67
2021/01/20 09:06:31;;;;;;;6.25;2.50;;;;;;;6.80;60.11;97934.16;5093395;28;20052;-67
2021/01/20 09:08:58;;;;;;;4.90;2.90;;;;;;;6.83;60.00;97928.53;5094015;28;20043;-67
2021/01/20 09:11:25;;;;;;;5.03;2.95;;;;;;;6.87;59.83;97928.97;5093606;28;20032;-67
2021/01/20 09:13:54;;;;;;;5.85;3.20;;;;;;;6.94;59.94;97935.09;5093708;28;20051;-67
2021/01/20 09:16:26;;;;;;;6.15;3.25;;;;;;;6.97;59.65;97931.25;5093319;28;20490;-67
2021/01/20 09:18:53;;;;;;;6.15;3.05;;;;;;;7.07;59.51;97931.75;5093659;28;20036;-67
2021/01/20 09:21:20;;;;;;;4.72;3.10;;;;;;;7.13;59.36;97923.91;5093333;28;20047;-67
2021/01/20 09:23:49;;;;;;;4.47;2.90;;;;;;;7.25;59.47;97936.50;5093506;28;20051;-67
2021/01/20 09:26:15;;;;;;;7.65;3.30;;;;;;;7.32;58.88;97921.59;5093392;28;20053;-67
2021/01/20 09:28:42;;;;;;;5.10;2.90;;;;;;;7.43;58.91;97923.69;5094243;28;20486;-67
2021/01/20 09:31:09;;;;;;;16.08;3.53;;;;;;;7.44;58.58;97923.50;5093851;28;20048;-67
2021/01/20 09:33:37;;;;;;;8.35;2.70;;;;;;;7.52;58.63;97921.72;5093373;28;20075;-65
2021/01/20 09:36:04;;;;;;;7.57;2.75;;;;;;;7.50;58.62;97923.72;5092766;28;20412;-67
2021/01/20 09:38:31;;;;;;;4.80;2.67;;;;;;;7.61;58.37;97923.19;5093274;28;20044;-69
2021/01/20 09:41:01;;;;;;;8.85;3.03;;;;;;;7.73;58.27;97926.88;5092929;28;20040;-65
2021/01/20 09:43:28;;;;;;;5.85;2.70;;;;;;;7.76;58.16;97926.50;5093311;28;20413;-66
2021/01/20 09:45:55;;;;;;;6.07;2.35;;;;;;;7.74;58.13;97930.31;5092724;28;20040;-66
2021/01/20 09:48:22;;;;;;;5.78;2.78;;;;;;;7.76;58.19;97925.69;5092961;28;20047;-66
2021/01/20 09:50:50;;;;;;;4.20;2.00;;;;;;;7.80;58.19;97935.63;5092855;28;20545;-66
2021/01/20 09:53:16;;;;;;;4.93;2.05;;;;;;;7.83;57.93;97914.16;5092893;28;20044;-66
2021/01/20 09:55:43;;;;;;;4.38;2.03;;;;;;;7.93;57.78;97921.69;5092682;28;20051;-66
2021/01/20 09:58:10;;;;;;;4.45;2.42;;;;;;;7.93;57.90;97929.59;5093103;28;20410;-66
2021/01/20 10:00:37;;;;;;;4.40;2.13;;;;;;;7.99;57.89;97927.97;5091681;28;20044;-66
2021/01/20 10:03:06;;;;;;;3.80;2.42;;;;;;;8.04;57.69;97912.41;5092764;28;20509;-66
2021/01/20 10:05:33;;;;;;;5.03;2.75;;;;;;;8.07;57.73;97907.56;5092647;28;20039;-66
2021/01/20 10:08:01;;;;;;;7.05;3.80;;;;;;;8.12;57.46;97913.06;5092698;28;20043;-66
2021/01/20 10:10:28;;;;;;;5.78;3.00;;;;;;;8.16;57.60;97902.91;5092565;28;20048;-66
2021/01/20 10:12:55;;;;;;;4.70;2.30;;;;;;;8.14;57.39;97899.69;5092464;28;20040;-67
2021/01/20 10:15:22;;;;;;;5.38;2.65;;;;;;;8.17;57.41;97904.56;5091827;28;20247;-67
2021/01/20 10:17:50;;;;;;;5.32;2.47;;;;;;;8.26;57.53;97903.38;5092557;28;20036;-67
2021/01/20 10:20:17;;;;;;;3.88;2.20;;;;;;;8.28;57.06;97885.53;5092309;28;20405;-67
2021/01/20 10:22:44;;;;;;;4.45;2.30;;;;;;;8.31;57.09;97879.88;5092391;28;20053;-67
2021/01/20 10:25:13;;;;;;;8.65;2.25;;;;;;;8.35;57.19;97867.13;5092320;28;20055;-67
2021/01/20 10:27:39;;;;;;;5.43;2.30;;;;;;;8.38;56.86;97872.03;5092208;28;20059;-67
2021/01/20 10:30:07;;;;;;;4.63;2.78;;;;;;;8.45;57.17;97862.31;5092311;28;20054;-68
2021/01/20 10:32:35;;;;;;;5.38;2.60;;;;;;;8.43;56.92;97861.69;5090873;28;20468;-67
2021/01/20 10:35:01;;;;;;;3.90;2.10;;;;;;;8.53;56.79;97853.38;5091939;28;20055;-67
2021/01/20 10:37:28;;;;;;;7.57;4.60;;;;;;;8.53;56.68;97854.22;5092230;28;20044;-67
2021/01/20 10:39:58;;;;;;;6.85;3.55;;;;;;;8.57;56.96;97851.94;5092166;28;20047;-67
2021/01/20 10:42:26;;;;;;;5.43;3.13;;;;;;;8.63;56.57;97841.44;5092033;28;20043;-67
2021/01/20 10:44:53;;;;;;;6.50;3.28;;;;;;;8.68;56.55;97840.81;5091952;28;20414;-66
2021/01/20 10:47:20;;;;;;;7.88;2.80;;;;;;;8.70;56.62;97833.53;5092071;28;20097;-66
2021/01/20 10:49:47;;;;;;;4.50;2.08;;;;;;;8.78;56.58;97822.78;5091913;28;20090;-65
2021/01/20 10:52:13;;;;;;;5.80;2.13;;;;;;;8.81;56.41;97818.91;5092165;28;20036;-66
2021/01/20 10:54:41;;;;;;;5.07;2.30;;;;;;;8.83;56.10;97809.78;5091904;28;20402;-65
2021/01/20 10:57:08;;;;;;;3.53;2.00;;;;;;;8.88;55.73;97793.34;5092113;28;20054;-65
2021/01/20 10:59:41;;;;;;;6.97;2.75;;;;;;;8.98;55.79;97795.56;5092304;28;20407;-65
2021/01/20 11:02:08;;;;;;;5.53;2.58;;;;;;;9.08;55.84;97788.84;5091923;28;20041;-65
2021/01/20 11:04:35;;;;;;;7.78;3.55;;;;;;;9.19;55.33;97797.94;5091618;28;20060;-65
2021/01/20 11:07:02;;;;;;;5.32;2.33;;;;;;;9.21;55.09;97797.72;5091803;28;20055;-65
2021/01/20 11:09:30;;;;;;;5.20;2.55;;;;;;;9.32;54.82;97789.97;5091891;28;20052;-65
2021/01/20 11:11:57;;;;;;;5.93;2.35;;;;;;;9.40;54.57;97791.56;5091788;28;20505;-65
2021/01/20 11:14:24;;;;;;;9.20;4.18;;;;;;;9.51;54.55;97790.91;5091578;28;20058;-65
2021/01/20 11:16:53;;;;;;;3.65;2.00;;;;;;;9.56;54.02;97777.91;5091668;28;20044;-65
2021/01/20 11:19:20;;;;;;;5.72;3.08;;;;;;;9.56;54.06;97777.91;5091811;28;20062;-65
2021/01/20 11:21:46;;;;;;;3.47;2.65;;;;;;;9.59;53.91;97766.09;5091825;28;20032;-65
2021/01/20 11:24:17;;;;;;;7.25;4.72;;;;;;;9.76;53.71;97763.78;5091539;28;20381;-66
2021/01/20 11:26:45;;;;;;;3.17;2.40;;;;;;;9.82;53.07;97747.91;5092158;28;20497;-66
2021/01/20 11:29:12;;;;;;;4.22;2.30;;;;;;;9.88;53.02;97743.63;5095737;28;20052;-66
2021/01/20 11:31:39;;;;;;;7.20;3.00;;;;;;;9.96;52.84;97730.16;5095812;28;20036;-65
2021/01/20 11:34:07;;;;;;;5.88;3.20;;;;;;;10.09;52.90;97742.44;5095647;28;20036;-65
2021/01/20 11:36:34;;;;;;;3.70;2.92;;;;;;;10.06;52.68;97730.47;5095465;28;20052;-65
2021/01/20 11:39:00;;;;;;;4.20;2.28;;;;;;;10.12;52.71;97731.44;5095779;28;20048;-65
2021/01/20 11:41:27;;;;;;;6.90;2.80;;;;;;;10.08;52.37;97717.88;5095861;28;20044;-65
2021/01/20 11:43:54;;;;;;;7.72;3.35;;;;;;;10.08;52.21;97712.59;5095533;28;20508;-65
2021/01/20 11:46:21;;;;;;;4.35;2.10;;;;;;;10.08;52.31;97719.69;5095250;28;20060;-66
2021/01/20 11:48:48;;;;;;;2.72;1.92;;;;;;;10.06;52.24;97708.53;5095475;28;20051;-65
2021/01/20 11:51:16;;;;;;;6.85;2.38;;;;;;;9.97;52.53;97702.72;5095526;28;20055;-65
2021/01/20 11:53:42;;;;;;;3.72;2.30;;;;;;;10.01;52.16;97695.19;5095693;28;20071;-65
2021/01/20 11:56:09;;;;;;;6.75;1.90;;;;;;;10.07;52.36;97695.13;5095701;28;20040;-65
2021/01/20 11:58:36;;;;;;;2.92;1.70;;;;;;;10.12;52.08;97695.28;5096818;28;20050;-65